createdAt,value
2023-01-04T00:00:01.191Z,4.26
2023-01-04T00:05:05.833Z,4.18
2023-01-04T00:10:09.544Z,4.15
2023-01-04T00:15:12.646Z,4.14
2023-01-04T00:20:15.864Z,4.16
2023-01-04T00:25:19.073Z,4.17
2023-01-04T00:30:22.086Z,4.21
2023-01-04T00:35:44.718Z,4.20
2023-01-04T00:40:49.284Z,4.09
2023-01-04T00:45:52.994Z,3.92
2023-01-04T00:50:57.233Z,3.81
2023-01-04T00:56:01.775Z,3.76
2023-01-04T01:01:07.160Z,3.70
2023-01-04T01:06:10.642Z,3.63
2023-01-04T01:11:13.996Z,3.60
2023-01-04T01:16:44.292Z,3.61
2023-01-04T01:21:44.536Z,3.55
2023-01-04T01:26:48.364Z,3.45
2023-01-04T01:31:51.660Z,3.38
2023-01-04T01:36:54.902Z,3.31
2023-01-04T01:41:59.778Z,3.21
2023-01-04T01:47:03.168Z,3.23
2023-01-04T01:52:14.324Z,3.25
2023-01-04T01:57:23.076Z,3.28
2023-01-04T02:02:26.315Z,3.27
2023-01-04T02:07:29.734Z,3.25
2023-01-04T02:12:32.907Z,3.12
2023-01-04T02:17:53.117Z,3.00
2023-01-04T02:23:20.596Z,2.93
2023-01-04T02:28:37.622Z,2.92
2023-01-04T02:34:05.203Z,2.92
2023-01-04T02:39:32.895Z,2.85
2023-01-04T02:44:53.369Z,2.77
2023-01-04T02:50:15.357Z,2.67
2023-01-04T02:55:18.870Z,2.58
2023-01-04T03:00:28.057Z,2.54
2023-01-04T03:06:07.165Z,2.51
2023-01-04T03:11:33.213Z,2.57
2023-01-04T03:16:39.778Z,2.62
2023-01-04T03:21:46.497Z,2.64
2023-01-04T03:27:19.926Z,2.63
2023-01-04T03:32:54.756Z,2.57
2023-01-04T03:38:52.359Z,2.46
2023-01-04T03:44:41.627Z,2.36
2023-01-04T03:49:57.757Z,2.21
2023-01-04T03:55:06.217Z,2.07
2023-01-04T04:00:17.294Z,2.05
2023-01-04T04:05:43.417Z,2.07
2023-01-04T04:10:46.513Z,2.11
2023-01-04T04:15:49.825Z,2.12
2023-01-04T04:21:01.883Z,2.02
2023-01-04T04:26:05.371Z,1.88
2023-01-04T04:31:14.849Z,1.80
2023-01-04T04:36:23.246Z,1.81
2023-01-04T04:41:39.081Z,1.88
2023-01-04T04:46:44.186Z,1.81
2023-01-04T04:51:49.149Z,1.83
2023-01-04T04:56:52.482Z,1.91
2023-01-04T05:01:55.726Z,1.99
2023-01-04T05:06:59.086Z,2.01
2023-01-04T05:12:21.030Z,2.02
2023-01-04T05:17:24.049Z,2.00
2023-01-04T05:22:27.078Z,1.95
2023-01-04T05:27:30.183Z,1.90
2023-01-04T05:32:33.283Z,1.87
2023-01-04T05:37:36.460Z,1.86
2023-01-04T05:42:39.484Z,1.82
2023-01-04T05:47:42.685Z,1.78
2023-01-04T05:52:46.493Z,1.70
2023-01-04T05:57:50.976Z,1.66
2023-01-04T06:02:55.778Z,1.53
2023-01-04T06:07:59.238Z,1.42
2023-01-04T06:13:05.651Z,1.36
2023-01-04T06:18:13.571Z,1.32
2023-01-04T06:23:17.117Z,1.26
2023-01-04T06:28:20.246Z,1.23
2023-01-04T06:33:23.243Z,1.21
2023-01-04T06:38:27.385Z,1.21
2023-01-04T06:43:30.665Z,1.28
2023-01-04T06:48:33.720Z,1.30
2023-01-04T06:53:36.987Z,1.22
2023-01-04T06:58:40.530Z,1.10
2023-01-04T07:03:43.607Z,1.02
2023-01-04T07:08:46.739Z,0.91
2023-01-04T07:13:49.942Z,0.85
2023-01-04T07:18:53.026Z,0.94
2023-01-04T07:23:56.633Z,1.06
2023-01-04T07:29:15.853Z,1.26
2023-01-04T07:34:23.183Z,1.39
2023-01-04T07:39:26.528Z,1.39
2023-01-04T07:44:29.665Z,1.37
2023-01-04T07:49:33.375Z,1.34
2023-01-04T07:54:36.523Z,1.39
2023-01-04T07:59:39.690Z,1.45
2023-01-04T08:04:42.847Z,1.57
2023-01-04T08:09:46.007Z,1.66
2023-01-04T08:14:49.672Z,1.79
2023-01-04T08:19:52.858Z,1.83
2023-01-04T08:24:56.036Z,1.80
2023-01-04T08:29:59.146Z,1.77
2023-01-04T08:35:02.349Z,1.72
2023-01-04T08:40:06.462Z,1.76
2023-01-04T08:45:10.306Z,1.83
2023-01-04T08:50:14.659Z,1.96
2023-01-04T08:55:23.160Z,2.09
2023-01-04T09:00:27.720Z,2.11
2023-01-04T09:05:33.027Z,2.21
2023-01-04T09:10:39.190Z,2.31
2023-01-04T09:15:42.324Z,2.50
2023-01-04T09:20:45.579Z,2.62
2023-01-04T09:25:48.781Z,2.83
2023-01-04T09:30:51.898Z,2.94
2023-01-04T09:35:54.986Z,3.01
2023-01-04T09:41:13.084Z,3.04
2023-01-04T09:46:46.403Z,3.09
2023-01-04T09:52:01.858Z,3.20
2023-01-04T09:57:13.975Z,3.29
2023-01-04T10:02:31.663Z,3.42
2023-01-04T10:07:36.415Z,3.59
2023-01-04T10:12:59.618Z,3.73
2023-01-04T10:19:59.865Z,3.79
2023-01-04T10:25:02.623Z,3.80
2023-01-04T10:30:05.612Z,3.83
2023-01-04T10:35:27.382Z,3.90
2023-01-04T10:40:37.983Z,3.98
2023-01-04T10:46:04.789Z,4.08
2023-01-04T10:51:10.504Z,4.13
2023-01-04T10:56:29.735Z,4.15
2023-01-04T11:01:48.761Z,4.15
2023-01-04T11:07:06.772Z,4.20
2023-01-04T11:12:15.162Z,4.31
2023-01-04T11:17:20.505Z,4.40
2023-01-04T11:22:57.387Z,4.45
2023-01-04T11:28:08.916Z,4.51
2023-01-04T11:33:18.732Z,4.57
2023-01-04T11:38:28.124Z,4.61
2023-01-04T11:43:38.034Z,4.62
2023-01-04T11:48:46.971Z,4.64
2023-01-04T11:54:00.538Z,4.68
2023-01-04T11:59:09.590Z,4.70
2023-01-04T12:04:25.490Z,4.66
2023-01-04T12:09:32.083Z,4.64
2023-01-04T12:14:44.204Z,4.64
2023-01-04T12:19:49.408Z,4.65
2023-01-04T12:25:00.322Z,4.68
2023-01-04T12:30:08.466Z,4.72
2023-01-04T12:36:12.298Z,4.74
2023-01-04T12:41:15.637Z,4.77
2023-01-04T12:46:49.746Z,4.78
2023-01-04T12:52:30.237Z,4.85
2023-01-04T12:57:39.479Z,4.92
2023-01-04T13:02:50.983Z,4.95
2023-01-04T13:08:01.021Z,4.97
2023-01-04T13:13:31.613Z,5.01
2023-01-04T13:18:47.497Z,5.06
2023-01-04T13:23:58.219Z,5.16
2023-01-04T13:29:17.142Z,5.23
2023-01-04T13:34:53.664Z,5.26
2023-01-04T13:40:19.518Z,5.20
2023-01-04T13:45:31.716Z,5.16
2023-01-04T13:50:58.606Z,5.11
2023-01-04T13:56:03.951Z,5.10
2023-01-04T14:01:35.042Z,5.11
2023-01-04T14:06:48.611Z,5.08
2023-01-04T14:12:09.085Z,4.98
2023-01-04T14:17:12.364Z,4.89
2023-01-04T14:22:21.367Z,4.88
2023-01-04T14:27:43.102Z,4.90
2023-01-04T14:33:01.875Z,4.92
2023-01-04T14:38:21.143Z,4.93
2023-01-04T14:43:35.003Z,4.91
2023-01-04T14:48:38.499Z,4.86
2023-01-04T14:53:42.320Z,4.85
2023-01-04T14:58:46.255Z,4.88
2023-01-04T15:03:49.396Z,4.94
2023-01-04T15:08:52.795Z,5.03
2023-01-04T15:13:55.964Z,5.05
2023-01-04T15:18:59.202Z,5.04
2023-01-04T15:24:02.800Z,5.04
2023-01-04T15:29:07.113Z,5.06
2023-01-04T15:34:10.817Z,5.07
2023-01-04T15:39:14.944Z,5.07
2023-01-04T15:44:18.028Z,5.05
2023-01-04T15:49:21.222Z,5.02
2023-01-04T15:54:28.912Z,5.03
2023-01-04T15:59:32.019Z,5.04
2023-01-04T16:04:36.157Z,5.06
2023-01-04T16:09:39.339Z,5.06
2023-01-04T16:14:42.570Z,5.04
2023-01-04T16:19:45.812Z,5.10
2023-01-04T16:30:14.152Z,5.14
2023-01-04T16:35:17.412Z,5.14
2023-01-04T16:40:21.455Z,5.18
2023-01-04T16:45:24.757Z,5.22
2023-01-04T16:50:27.961Z,5.26
2023-01-04T16:55:31.177Z,5.29
2023-01-04T17:00:34.523Z,5.29
2023-01-04T17:05:41.888Z,5.27
2023-01-04T17:10:45.322Z,5.31
2023-01-04T17:15:48.424Z,5.36
2023-01-04T17:21:24.170Z,5.41
2023-01-04T17:26:32.101Z,5.45
2023-01-04T17:31:40.133Z,5.50
2023-01-04T17:36:44.563Z,5.53
2023-01-04T17:41:47.779Z,5.54
2023-01-04T17:46:50.987Z,5.59
2023-01-04T17:51:55.637Z,5.64
2023-01-04T17:56:58.827Z,5.67
2023-01-04T18:02:02.089Z,5.71
2023-01-04T18:07:05.451Z,5.75
2023-01-04T18:12:08.862Z,5.78
2023-01-04T18:17:13.227Z,5.78
2023-01-04T18:22:16.934Z,5.83
2023-01-04T18:27:22.165Z,5.89
2023-01-04T18:32:27.499Z,5.93
2023-01-04T18:37:31.570Z,5.94
2023-01-04T18:42:34.704Z,6.01
2023-01-04T18:47:38.182Z,6.08
2023-01-04T18:52:41.904Z,6.13
2023-01-04T18:57:45.012Z,6.17
2023-01-04T19:02:48.302Z,6.19
2023-01-04T19:07:52.142Z,6.24
2023-01-04T19:12:55.253Z,6.32
2023-01-04T19:17:58.455Z,6.38
2023-01-04T19:23:01.575Z,6.40
2023-01-04T19:28:05.491Z,6.44
2023-01-04T19:33:10.859Z,6.48
2023-01-04T19:38:14.787Z,6.56
2023-01-04T19:43:18.011Z,6.62
2023-01-04T19:48:23.835Z,6.65
2023-01-04T19:53:27.065Z,6.69
2023-01-04T19:58:30.889Z,6.77
2023-01-04T20:03:34.671Z,6.84
2023-01-04T20:08:39.667Z,6.92
2023-01-04T20:13:42.872Z,6.97
2023-01-04T20:18:46.199Z,7.03
2023-01-04T20:23:50.409Z,7.08
2023-01-04T20:28:53.659Z,7.10
2023-01-04T20:33:57.763Z,7.15
2023-01-04T20:39:02.717Z,7.20
2023-01-04T20:44:05.938Z,7.23
2023-01-04T20:49:09.332Z,7.26
2023-01-04T20:54:13.505Z,7.30
2023-01-04T20:59:16.559Z,7.34
2023-01-04T21:04:19.769Z,7.36
2023-01-04T21:09:22.877Z,7.39
2023-01-04T21:14:26.395Z,7.41
2023-01-04T21:19:29.599Z,7.42
2023-01-04T21:24:34.618Z,7.45
2023-01-04T21:29:37.966Z,7.47
2023-01-04T21:34:41.075Z,7.50
2023-01-04T21:39:44.279Z,7.52
2023-01-04T21:44:47.484Z,7.54
2023-01-04T21:49:51.048Z,7.56
2023-01-04T21:54:54.636Z,7.60
2023-01-04T21:59:57.724Z,7.63
2023-01-04T22:05:01.469Z,7.66
2023-01-04T22:10:05.599Z,7.69
2023-01-04T22:15:10.089Z,7.72
2023-01-04T22:20:13.222Z,7.75
2023-01-04T22:25:16.743Z,7.80
2023-01-04T22:30:20.251Z,7.83
2023-01-04T22:35:23.562Z,7.86
2023-01-04T22:40:26.666Z,7.89
2023-01-04T22:45:29.980Z,7.92
2023-01-04T22:50:33.005Z,7.94
2023-01-04T22:56:17.130Z,7.97
2023-01-04T23:01:06.808Z,7.99
2023-01-04T23:06:13.520Z,8.00
2023-01-04T23:11:19.474Z,8.00
2023-01-04T23:16:27.808Z,8.01
2023-01-04T23:21:33.045Z,8.02
2023-01-04T23:26:36.219Z,8.03
2023-01-04T23:31:39.910Z,8.04
2023-01-04T23:36:43.557Z,8.07
2023-01-04T23:41:47.117Z,8.11
2023-01-04T23:46:55.089Z,8.15
2023-01-04T23:51:59.835Z,8.17
2023-01-04T23:57:04.068Z,8.19
